Time;durP1;ratioP1;P1;durP2;ratioP2;P2;SDS_P1;SDS_P2;PMS_P1;PMS_P2;Temp;Humidity;BMP_temperature;BMP_pressure;BME280_temperature;BME280_humidity;BME280_pressure;Samples;Min_cycle;Max_cycle;Signal;HPM_P1;HPM_P2
2021/06/09 00:01:58;;;;;;;24.42;15.85;;;;;;;16.06;100.00;96668.66;5037585;28;20216;-73
2021/06/09 00:04:23;;;;;;;20.27;11.73;;;;;;;15.93;100.00;96673.91;5037449;28;20228;-73
2021/06/09 00:06:51;;;;;;;15.18;10.80;;;;;;;15.79;100.00;96676.72;5037460;28;20259;-73
2021/06/09 00:09:17;;;;;;;29.58;18.13;;;;;;;15.90;100.00;96661.03;5037335;28;20201;-73
2021/06/09 00:11:43;;;;;;;21.58;12.32;;;;;;;15.78;100.00;96667.09;5038182;28;20237;-73
2021/06/09 00:14:09;;;;;;;28.98;18.08;;;;;;;15.85;100.00;96668.78;5037587;28;20229;-73
2021/06/09 00:16:36;;;;;;;24.38;16.42;;;;;;;15.87;100.00;96665.91;5037923;28;20211;-73
2021/06/09 00:19:02;;;;;;;26.30;17.23;;;;;;;15.95;100.00;96671.88;5037791;28;20679;-73
2021/06/09 00:21:28;;;;;;;28.48;18.05;;;;;;;15.99;100.00;96670.47;5037570;28;20205;-73
2021/06/09 00:23:55;;;;;;;26.40;19.17;;;;;;;15.93;100.00;96671.25;5037924;28;20224;-73
2021/06/09 00:26:22;;;;;;;26.67;18.98;;;;;;;15.94;100.00;96664.91;5037399;28;20201;-73
2021/06/09 00:28:50;;;;;;;27.88;18.88;;;;;;;15.95;100.00;96666.56;5036805;28;20237;-73
2021/06/09 00:31:16;;;;;;;34.88;21.10;;;;;;;15.87;100.00;96660.59;5037712;28;20201;-73
2021/06/09 00:33:42;;;;;;;28.25;20.00;;;;;;;15.86;100.00;96661.63;5037167;28;20828;-73
2021/06/09 00:36:08;;;;;;;32.72;20.08;;;;;;;15.90;100.00;96669.00;5038211;28;20197;-73
2021/06/09 00:38:34;;;;;;;27.63;18.17;;;;;;;15.94;100.00;96669.44;5037233;28;20208;-73
2021/06/09 00:41:02;;;;;;;23.33;15.85;;;;;;;15.93;100.00;96665.94;5037792;28;20793;-73
2021/06/09 00:43:32;;;;;;;29.88;17.42;;;;;;;15.90;100.00;96662.88;5037713;28;20769;-73
2021/06/09 00:46:00;;;;;;;24.00;17.15;;;;;;;15.91;100.00;96668.00;5036874;28;20197;-73
2021/06/09 00:48:29;;;;;;;28.38;17.50;;;;;;;15.82;100.00;96667.53;5037431;28;20224;-73
2021/06/09 00:50:58;;;;;;;26.40;17.35;;;;;;;15.86;100.00;96673.06;5038265;28;21174;-73
2021/06/09 00:53:27;;;;;;;25.90;17.25;;;;;;;15.87;100.00;96671.22;5040058;28;20236;-73
2021/06/09 00:55:54;;;;;;;26.83;16.77;;;;;;;15.86;100.00;96662.44;5040279;28;20205;-73
2021/06/09 00:58:22;;;;;;;29.17;19.42;;;;;;;15.78;100.00;96658.31;5042041;28;21161;-73
2021/06/09 01:00:48;;;;;;;23.02;14.93;;;;;;;15.67;100.00;96659.72;5040342;28;20197;-73
2021/06/09 01:03:14;;;;;;;22.30;13.57;;;;;;;15.63;100.00;96666.44;5040711;28;20962;-73
2021/06/09 01:05:40;;;;;;;23.23;15.25;;;;;;;15.55;100.00;96663.13;5039854;28;20216;-73
2021/06/09 01:08:07;;;;;;;26.42;15.70;;;;;;;15.53;100.00;96668.63;5040233;28;20201;-73
2021/06/09 01:10:33;;;;;;;39.05;20.88;;;;;;;15.49;100.00;96663.91;5040858;28;20316;-73
2021/06/09 01:13:00;;;;;;;25.27;16.40;;;;;;;15.38;100.00;96664.47;5039840;28;20596;-73
2021/06/09 01:15:29;;;;;;;28.75;18.38;;;;;;;15.39;100.00;96661.63;5039363;28;20232;-73
2021/06/09 01:17:56;;;;;;;30.92;19.33;;;;;;;15.47;100.00;96666.75;5041047;28;20255;-73
2021/06/09 01:20:22;;;;;;;29.05;18.50;;;;;;;15.53;100.00;96671.28;5040224;28;20228;-73
2021/06/09 01:22:50;;;;;;;38.10;21.95;;;;;;;15.44;100.00;96667.16;5039016;28;20577;-73
2021/06/09 01:25:19;;;;;;;26.77;16.90;;;;;;;15.40;100.00;96663.25;5039433;28;20212;-73
2021/06/09 01:27:47;;;;;;;25.85;16.23;;;;;;;15.30;100.00;96662.00;5041984;28;20703;-73
2021/06/09 01:30:15;;;;;;;23.15;13.88;;;;;;;15.22;100.00;96661.31;5041304;28;20678;-73
2021/06/09 01:32:41;;;;;;;24.45;14.82;;;;;;;15.31;100.00;96653.81;5040228;28;20237;-73
2021/06/09 01:35:09;;;;;;;27.92;18.13;;;;;;;15.31;100.00;96656.47;5040124;28;20225;-73
2021/06/09 01:37:35;;;;;;;22.17;15.43;;;;;;;15.28;100.00;96659.50;5039869;28;20209;-73
2021/06/09 01:40:06;;;;;;;26.63;16.35;;;;;;;15.24;100.00;96655.59;5040827;28;20209;-73
2021/06/09 01:42:32;;;;;;;27.95;18.52;;;;;;;15.33;100.00;96656.28;5040628;28;20209;-73
2021/06/09 01:44:58;;;;;;;29.23;20.05;;;;;;;15.27;100.00;96663.19;5039885;28;20271;-73
2021/06/09 01:47:25;;;;;;;30.27;19.48;;;;;;;15.23;100.00;96657.66;5039406;28;20208;-73
2021/06/09 01:49:51;;;;;;;33.85;20.52;;;;;;;15.13;100.00;96657.13;5040595;28;20204;-73
2021/06/09 01:52:19;;;;;;;31.42;21.77;;;;;;;15.16;100.00;96657.56;5039588;28;20204;-73
2021/06/09 01:54:45;;;;;;;35.10;21.90;;;;;;;15.17;100.00;96651.22;5040397;28;20968;-72
2021/06/09 01:57:13;;;;;;;32.45;20.98;;;;;;;15.19;100.00;96657.19;5038798;28;20243;-73
2021/06/09 01:59:39;;;;;;;27.02;17.50;;;;;;;15.17;100.00;96659.19;5039599;28;20209;-73
2021/06/09 02:02:05;;;;;;;23.42;16.08;;;;;;;14.96;100.00;96656.63;5038659;28;20619;-73
2021/06/09 02:04:32;;;;;;;35.53;21.42;;;;;;;15.10;100.00;96652.22;5038987;28;20230;-74
2021/06/09 02:06:58;;;;;;;32.40;20.83;;;;;;;15.08;100.00;96646.28;5040203;28;20205;-71
2021/06/09 02:09:24;;;;;;;31.05;19.70;;;;;;;15.08;100.00;96648.94;5036208;28;20316;-73
2021/06/09 02:11:51;;;;;;;30.58;19.05;;;;;;;15.04;100.00;96640.53;5040908;28;20291;-74
2021/06/09 02:14:19;;;;;;;41.22;22.85;;;;;;;15.05;100.00;96644.84;5039661;28;20225;-73
2021/06/09 02:16:49;;;;;;;38.42;23.85;;;;;;;14.90;100.00;96643.28;5038839;28;20213;-74
2021/06/09 02:19:16;;;;;;;35.55;21.02;;;;;;;14.99;100.00;96642.94;5039373;28;20205;-73
2021/06/09 02:21:43;;;;;;;33.45;19.88;;;;;;;14.94;100.00;96639.25;5039135;28;20737;-72
2021/06/09 02:24:11;;;;;;;32.55;20.17;;;;;;;15.00;100.00;96636.63;5038647;28;20225;-73
2021/06/09 02:26:39;;;;;;;19.00;13.23;;;;;;;14.80;100.00;96641.00;5037770;28;20746;-74
2021/06/09 02:29:06;;;;;;;31.23;18.90;;;;;;;14.97;100.00;96636.19;5039326;28;20212;-73
2021/06/09 02:31:34;;;;;;;24.45;16.20;;;;;;;14.97;100.00;96644.16;5038407;28;21122;-72
2021/06/09 02:34:00;;;;;;;21.15;14.07;;;;;;;14.74;100.00;96630.34;5038627;28;20232;-73
2021/06/09 02:36:27;;;;;;;21.02;12.52;;;;;;;14.59;100.00;96628.75;5039197;28;20208;-74
2021/06/09 02:38:53;;;;;;;23.15;14.65;;;;;;;14.63;100.00;96622.91;5038783;28;20212;-73
2021/06/09 02:41:20;;;;;;;23.27;15.93;;;;;;;14.67;100.00;96624.94;5039625;28;21118;-72
2021/06/09 02:43:48;;;;;;;19.35;13.15;;;;;;;14.63;100.00;96621.06;5039769;28;20225;-73
2021/06/09 02:46:20;;;;;;;21.30;13.05;;;;;;;14.33;100.00;96617.94;5038995;28;20292;-72
2021/06/09 02:48:52;;;;;;;23.17;13.55;;;;;;;14.35;100.00;96618.59;5038879;28;20619;-74
2021/06/09 02:51:21;;;;;;;18.35;12.60;;;;;;;14.31;100.00;96620.78;5037702;28;20212;-73
2021/06/09 02:53:53;;;;;;;24.65;14.65;;;;;;;14.32;100.00;96622.44;5038272;28;20229;-73
2021/06/09 02:56:25;;;;;;;28.33;17.02;;;;;;;14.31;100.00;96622.63;5038142;28;20213;-73
2021/06/09 02:59:02;;;;;;;33.58;18.42;;;;;;;14.41;100.00;96625.75;5035551;28;20215;-73
2021/06/09 03:01:32;;;;;;;20.05;13.88;;;;;;;14.29;100.00;96627.28;5039249;28;20215;-72
2021/06/09 03:04:06;;;;;;;18.70;12.80;;;;;;;14.08;100.00;96622.00;5038840;28;20232;-73
2021/06/09 03:06:39;;;;;;;20.45;13.70;;;;;;;14.09;100.00;96634.22;5037290;28;20295;-73
2021/06/09 03:09:07;;;;;;;22.95;15.88;;;;;;;14.16;100.00;96635.13;5038247;28;20205;-73
2021/06/09 03:11:54;;;;;;;28.75;16.75;;;;;;;14.14;100.00;96642.44;5038326;28;21295;-74
2021/06/09 03:17:13;;;;;;;28.23;17.35;;;;;;;14.24;100.00;96630.53;5036409;28;20450;-71
2021/06/09 03:19:49;;;;;;;22.90;16.05;;;;;;;14.24;100.00;96637.63;5038656;28;20299;-72
2021/06/09 03:22:25;;;;;;;25.38;15.00;;;;;;;14.21;100.00;96638.03;5038145;28;20690;-73
2021/06/09 03:24:55;;;;;;;25.90;14.45;;;;;;;14.29;100.00;96640.53;5037794;28;20315;-73
2021/06/09 03:27:26;;;;;;;31.50;17.33;;;;;;;14.23;100.00;96641.28;5037270;28;20242;-73
2021/06/09 03:29:57;;;;;;;32.80;19.02;;;;;;;14.13;100.00;96640.81;5037693;28;20212;-74
2021/06/09 03:32:27;;;;;;;28.23;14.73;;;;;;;14.04;100.00;96642.72;5038991;28;20213;-72
2021/06/09 03:35:00;;;;;;;26.35;15.98;;;;;;;13.93;100.00;96639.75;5038892;28;20434;-72
2021/06/09 03:37:27;;;;;;;26.17;16.17;;;;;;;14.10;100.00;96649.97;5037385;28;21138;-72
2021/06/09 03:39:58;;;;;;;26.20;16.17;;;;;;;14.12;100.00;96644.47;5037611;28;20209;-72
2021/06/09 03:42:28;;;;;;;25.42;14.90;;;;;;;14.07;100.00;96649.47;5037791;28;20679;-73
2021/06/09 03:44:57;;;;;;;23.73;13.93;;;;;;;14.22;100.00;96639.66;5037546;28;20264;-73
2021/06/09 03:47:23;;;;;;;23.45;13.82;;;;;;;14.22;100.00;96643.13;5036771;28;20220;-73
2021/06/09 03:49:51;;;;;;;24.20;16.13;;;;;;;14.31;100.00;96646.50;5038600;28;20204;-73
2021/06/09 03:52:19;;;;;;;29.80;17.27;;;;;;;14.18;100.00;96641.06;5036844;28;20270;-72
2021/06/09 03:54:49;;;;;;;28.55;16.75;;;;;;;14.26;100.00;96649.69;5037325;28;20231;-73
2021/06/09 03:57:15;;;;;;;22.88;14.95;;;;;;;14.30;100.00;96658.09;5037548;28;20258;-72
2021/06/09 03:59:46;;;;;;;20.02;14.30;;;;;;;14.29;100.00;96640.53;5037532;28;20202;-74
2021/06/09 04:02:12;;;;;;;20.45;13.35;;;;;;;14.33;100.00;96641.81;5037913;28;20209;-73
2021/06/09 04:04:39;;;;;;;22.25;13.73;;;;;;;14.31;100.00;96641.19;5037526;28;20229;-72
2021/06/09 04:07:07;;;;;;;21.88;15.65;;;;;;;14.35;100.00;96650.41;5037858;28;20212;-74
2021/06/09 04:09:38;;;;;;;30.52;18.70;;;;;;;14.39;100.00;96641.84;5038189;28;20201;-73
2021/06/09 04:12:06;;;;;;;28.67;18.75;;;;;;;14.45;100.00;96651.72;5038015;28;20212;-72
2021/06/09 04:14:34;;;;;;;23.25;15.32;;;;;;;14.41;100.00;96645.16;5037953;28;20232;-74
2021/06/09 04:17:02;;;;;;;22.98;15.38;;;;;;;14.50;100.00;96651.13;5036862;28;20201;-73
2021/06/09 04:19:29;;;;;;;20.33;13.57;;;;;;;14.52;100.00;96652.56;5038078;28;20205;-74
2021/06/09 04:21:55;;;;;;;21.55;15.35;;;;;;;14.56;100.00;96651.22;5036915;28;20201;-73
2021/06/09 04:24:21;;;;;;;25.67;16.55;;;;;;;14.66;100.00;96655.16;5037907;28;20225;-73
2021/06/09 04:26:52;;;;;;;28.70;19.33;;;;;;;14.72;100.00;96659.69;5039498;28;20625;-73
2021/06/09 04:29:20;;;;;;;22.15;13.90;;;;;;;14.73;100.00;96656.03;5041344;28;20214;-73
2021/06/09 04:31:47;;;;;;;14.88;11.30;;;;;;;14.74;100.00;96656.88;5042147;28;20204;-70
2021/06/09 04:34:13;;;;;;;22.23;14.65;;;;;;;14.68;100.00;96650.47;5041777;28;20225;-72
2021/06/09 04:36:40;;;;;;;24.05;17.20;;;;;;;14.84;100.00;96647.56;5041455;28;20974;-71
2021/06/09 04:39:06;;;;;;;29.38;18.08;;;;;;;14.98;100.00;96653.75;5041793;28;20201;-71
2021/06/09 04:41:32;;;;;;;32.63;21.10;;;;;;;15.07;100.00;96652.59;5040744;28;20306;-73
2021/06/09 04:44:00;;;;;;;28.92;19.08;;;;;;;15.16;100.00;96649.63;5041361;28;20715;-72
2021/06/09 04:46:26;;;;;;;31.52;20.25;;;;;;;15.35;100.00;96649.75;5040294;28;20211;-73
2021/06/09 04:48:57;;;;;;;33.33;21.05;;;;;;;15.49;100.00;96651.47;5041408;28;20201;-73
2021/06/09 04:51:26;;;;;;;32.53;18.60;;;;;;;15.63;100.00;96649.66;5040966;28;20209;-73
2021/06/09 04:53:52;;;;;;;30.08;19.13;;;;;;;15.63;100.00;96639.88;5040288;28;20274;-73
2021/06/09 04:56:18;;;;;;;38.28;20.77;;;;;;;15.67;100.00;96637.63;5039878;28;20209;-73
2021/06/09 04:58:44;;;;;;;43.92;23.08;;;;;;;15.80;100.00;96637.69;5040552;28;20213;-73
2021/06/09 05:01:11;;;;;;;36.88;22.60;;;;;;;15.88;100.00;96648.94;5040642;28;20694;-72
2021/06/09 05:03:37;;;;;;;44.78;24.60;;;;;;;16.00;100.00;96639.41;5041264;28;20221;-71
2021/06/09 05:06:04;;;;;;;39.72;24.95;;;;;;;16.11;100.00;96642.25;5041096;28;20284;-72
2021/06/09 05:08:29;;;;;;;42.83;25.20;;;;;;;16.25;100.00;96648.44;5039905;28;20207;-71
2021/06/09 05:10:56;;;;;;;36.67;23.63;;;;;;;16.40;100.00;96638.50;5041360;28;20959;-71
2021/06/09 05:13:26;;;;;;;38.28;24.90;;;;;;;16.56;100.00;96638.91;5040031;28;20233;-73
2021/06/09 05:15:55;;;;;;;47.45;24.17;;;;;;;16.60;100.00;96645.47;5040258;28;20221;-71
2021/06/09 05:18:26;;;;;;;37.88;23.98;;;;;;;16.64;100.00;96644.03;5040907;28;20205;-72
2021/06/09 05:20:53;;;;;;;35.53;22.88;;;;;;;16.62;100.00;96644.25;5040400;28;20197;-72
2021/06/09 05:23:24;;;;;;;33.70;22.35;;;;;;;16.69;100.00;96653.03;5039770;28;20225;-73
2021/06/09 05:25:51;;;;;;;40.55;22.63;;;;;;;16.69;100.00;96655.69;5039440;28;20542;-73
2021/06/09 05:28:20;;;;;;;33.28;21.95;;;;;;;16.79;100.00;96652.59;5040031;28;20205;-73
2021/06/09 05:30:47;;;;;;;35.03;21.15;;;;;;;16.91;100.00;96645.66;5040753;28;20241;-73
2021/06/09 05:33:13;;;;;;;40.90;21.45;;;;;;;16.83;100.00;96657.34;5040940;28;20225;-73
2021/06/09 05:35:41;;;;;;;35.50;20.67;;;;;;;16.73;100.00;96656.91;5038982;28;20221;-73
2021/06/09 05:38:08;;;;;;;33.95;21.15;;;;;;;16.67;100.00;96657.72;5037673;28;20193;-71
2021/06/09 05:40:34;;;;;;;36.17;21.95;;;;;;;16.63;100.00;96647.72;5039810;28;20216;-73
2021/06/09 05:43:00;;;;;;;33.45;21.05;;;;;;;16.68;100.00;96650.56;5039090;28;20217;-73
2021/06/09 05:45:27;;;;;;;36.95;21.85;;;;;;;16.70;100.00;96644.03;5039378;28;20200;-73
2021/06/09 05:47:53;;;;;;;34.20;21.13;;;;;;;16.73;100.00;96651.59;5040365;28;20215;-73
2021/06/09 05:50:22;;;;;;;32.17;20.90;;;;;;;16.87;100.00;96658.56;5039151;28;20201;-72
2021/06/09 05:52:51;;;;;;;37.70;20.55;;;;;;;17.00;100.00;96653.22;5039272;28;20197;-72
2021/06/09 05:55:19;;;;;;;37.20;20.73;;;;;;;17.16;100.00;96650.94;5039567;28;20220;-72
2021/06/09 05:57:46;;;;;;;31.73;19.85;;;;;;;17.27;100.00;96650.38;5039683;28;20697;-72
2021/06/09 06:00:13;;;;;;;33.10;20.40;;;;;;;17.27;100.00;96652.19;5039970;28;20208;-72
2021/06/09 06:02:40;;;;;;;29.63;20.02;;;;;;;17.43;100.00;96655.22;5039888;28;20613;-73
2021/06/09 06:05:08;;;;;;;31.23;19.42;;;;;;;17.47;100.00;96650.31;5040378;28;20287;-72
2021/06/09 06:07:35;;;;;;;30.58;19.80;;;;;;;17.60;100.00;96655.59;5038501;28;20206;-73
2021/06/09 06:10:05;;;;;;;26.63;18.70;;;;;;;17.52;100.00;96658.50;5039387;28;20228;-73
2021/06/09 06:12:32;;;;;;;32.20;20.23;;;;;;;17.54;100.00;96651.09;5039867;28;20589;-73
2021/06/09 06:14:58;;;;;;;30.48;18.90;;;;;;;17.61;100.00;96663.38;5039479;28;20235;-72
2021/06/09 06:17:24;;;;;;;32.42;20.90;;;;;;;17.71;100.00;96652.28;5038334;28;20205;-73
2021/06/09 06:19:51;;;;;;;32.15;20.45;;;;;;;17.69;100.00;96651.66;5039654;28;20205;-73
2021/06/09 06:22:18;;;;;;;31.65;19.70;;;;;;;17.77;100.00;96657.59;5038242;28;20677;-72
2021/06/09 06:24:46;;;;;;;35.45;20.63;;;;;;;17.83;100.00;96656.72;5038634;28;20236;-73
2021/06/09 06:27:14;;;;;;;29.75;19.65;;;;;;;17.90;100.00;96646.88;5038652;28;21088;-73
2021/06/09 06:29:41;;;;;;;27.88;19.58;;;;;;;17.98;100.00;96652.75;5040180;28;20212;-73
2021/06/09 06:32:09;;;;;;;28.75;20.08;;;;;;;18.13;100.00;96663.19;5039051;28;20206;-72
2021/06/09 06:34:40;;;;;;;23.65;16.27;;;;;;;18.21;100.00;96658.44;5039652;28;20233;-74
2021/06/09 06:37:06;;;;;;;19.98;14.93;;;;;;;18.26;100.00;96655.13;5038178;28;20575;-73
2021/06/09 06:39:34;;;;;;;21.30;14.95;;;;;;;18.35;100.00;96658.16;5037956;28;20201;-73
2021/06/09 06:42:00;;;;;;;20.00;14.43;;;;;;;18.46;100.00;96649.44;5038724;28;20198;-72
2021/06/09 06:44:27;;;;;;;21.75;15.10;;;;;;;18.57;100.00;96651.44;5039902;28;20581;-72
2021/06/09 06:46:54;;;;;;;19.63;14.00;;;;;;;18.66;100.00;96658.16;5037053;28;20212;-73
2021/06/09 06:49:20;;;;;;;19.77;14.75;;;;;;;18.69;100.00;96657.69;5038675;28;20209;-73
2021/06/09 06:51:50;;;;;;;22.65;15.10;;;;;;;18.78;100.00;96656.41;5039290;28;20825;-74
2021/06/09 06:54:17;;;;;;;20.45;14.57;;;;;;;18.75;100.00;96653.34;5037979;28;20240;-74
2021/06/09 06:56:43;;;;;;;23.27;15.02;;;;;;;18.79;100.00;96650.03;5037838;28;20205;-73
2021/06/09 06:59:09;;;;;;;20.85;14.57;;;;;;;18.93;100.00;96655.03;5038722;28;20729;-73
2021/06/09 07:01:38;;;;;;;20.70;14.88;;;;;;;19.05;100.00;96655.97;5038188;28;20672;-72
2021/06/09 07:04:06;;;;;;;20.00;14.23;;;;;;;19.11;100.00;96656.97;5037383;28;20247;-73
2021/06/09 07:06:33;;;;;;;20.40;14.27;;;;;;;19.18;100.00;96660.41;5037045;28;20205;-73
2021/06/09 07:09:00;;;;;;;21.80;15.48;;;;;;;19.19;100.00;96654.03;5037293;28;20247;-73
2021/06/09 07:11:27;;;;;;;22.08;14.88;;;;;;;19.29;100.00;96659.69;5037468;28;20213;-72
2021/06/09 07:13:57;;;;;;;19.98;15.10;;;;;;;19.39;100.00;96657.34;5037819;28;20267;-74
2021/06/09 07:16:29;;;;;;;20.52;15.80;;;;;;;19.45;100.00;96653.75;5038250;28;20507;-73
2021/06/09 07:18:58;;;;;;;22.90;14.70;;;;;;;19.56;100.00;96653.03;5038288;28;20267;-73
2021/06/09 07:21:24;;;;;;;26.63;14.60;;;;;;;19.67;100.00;96656.59;5038465;28;20213;-73
2021/06/09 07:23:50;;;;;;;23.40;15.35;;;;;;;19.79;100.00;96668.19;5038247;28;20213;-74
2021/06/09 07:26:17;;;;;;;22.45;15.25;;;;;;;19.82;100.00;96665.06;5037115;28;20412;-72
2021/06/09 07:28:46;;;;;;;22.58;14.27;;;;;;;19.94;100.00;96667.84;5037894;28;20688;-73
2021/06/09 07:31:15;;;;;;;21.17;15.85;;;;;;;19.80;99.58;96661.78;5038478;28;20205;-73
2021/06/09 07:33:41;;;;;;;20.08;14.65;;;;;;;19.86;100.00;96674.28;5038768;28;20250;-73
2021/06/09 07:36:12;;;;;;;21.02;15.43;;;;;;;19.94;98.86;96678.53;5036833;28;20224;-73
2021/06/09 07:38:42;;;;;;;19.40;14.90;;;;;;;20.08;99.81;96675.47;5037077;28;20205;-74
2021/06/09 07:41:10;;;;;;;21.27;15.05;;;;;;;20.01;100.00;96671.25;5035820;28;21039;-73
2021/06/09 07:43:39;;;;;;;22.45;14.73;;;;;;;20.06;100.00;96677.56;5034883;28;20229;-72
2021/06/09 07:46:07;;;;;;;22.15;15.60;;;;;;;20.01;100.00;96672.06;5034179;28;20197;-73
2021/06/09 07:48:34;;;;;;;21.33;14.73;;;;;;;20.17;100.00;96676.81;5035502;28;20232;-72
2021/06/09 07:51:03;;;;;;;21.80;15.25;;;;;;;20.24;100.00;96685.59;5035942;28;20205;-73
2021/06/09 07:53:32;;;;;;;20.02;14.68;;;;;;;20.52;100.00;96669.72;5038053;28;20232;-72
2021/06/09 07:55:59;;;;;;;20.17;14.57;;;;;;;20.67;100.00;96665.59;5037464;28;20224;-72
2021/06/09 07:58:28;;;;;;;19.05;14.60;;;;;;;20.85;100.00;96665.56;5037814;28;20205;-72
2021/06/09 08:00:56;;;;;;;20.92;15.50;;;;;;;20.84;94.68;96670.09;5039139;28;20503;-73
2021/06/09 08:03:25;;;;;;;18.58;13.82;;;;;;;20.86;98.21;96667.19;5041502;28;20889;-72
2021/06/09 08:05:52;;;;;;;19.35;14.48;;;;;;;20.94;94.42;96666.88;5042525;28;20242;-72
2021/06/09 08:08:18;;;;;;;20.20;15.07;;;;;;;20.89;98.83;96670.22;5043370;28;20556;-72
2021/06/09 08:10:46;;;;;;;20.65;14.85;;;;;;;21.11;95.24;96673.97;5043017;28;20491;-72
2021/06/09 08:13:12;;;;;;;21.00;15.20;;;;;;;21.17;92.73;96674.94;5042087;28;20252;-73
2021/06/09 08:15:39;;;;;;;21.30;14.45;;;;;;;21.09;93.19;96678.78;5039959;28;20605;-73
2021/06/09 08:18:06;;;;;;;23.48;14.95;;;;;;;21.10;94.83;96675.03;5039729;28;20456;-73
2021/06/09 08:20:34;;;;;;;19.45;14.73;;;;;;;21.22;97.46;96677.72;5039062;28;20201;-73
2021/06/09 08:23:01;;;;;;;22.17;15.13;;;;;;;21.17;91.51;96686.47;5039400;28;20220;-73
2021/06/09 08:25:27;;;;;;;21.15;15.13;;;;;;;21.19;93.81;96689.72;5038835;28;20201;-73
2021/06/09 08:27:55;;;;;;;21.05;15.82;;;;;;;21.24;89.57;96691.72;5039431;28;20206;-73
2021/06/09 08:30:22;;;;;;;23.27;15.98;;;;;;;21.31;92.43;96692.41;5039412;28;20224;-73
2021/06/09 08:32:49;;;;;;;23.50;15.15;;;;;;;21.42;94.21;96687.03;5039406;28;20220;-73
2021/06/09 08:35:15;;;;;;;21.38;15.25;;;;;;;21.56;90.48;96694.69;5038133;28;20225;-73
2021/06/09 08:37:41;;;;;;;21.98;14.80;;;;;;;21.77;92.23;96694.06;5039010;28;20201;-73
2021/06/09 08:40:10;;;;;;;20.02;14.93;;;;;;;21.97;87.74;96696.38;5039931;28;20263;-72
2021/06/09 08:42:38;;;;;;;20.55;15.20;;;;;;;22.17;85.54;96694.94;5041651;28;20738;-72
2021/06/09 08:45:08;;;;;;;19.85;14.38;;;;;;;22.04;92.60;96692.50;5040941;28;20210;-72
2021/06/09 08:47:36;;;;;;;20.98;15.70;;;;;;;22.04;92.07;96692.50;5042672;28;20209;-71
2021/06/09 08:50:04;;;;;;;21.50;15.23;;;;;;;22.17;91.57;96693.06;5039271;28;20701;-71
2021/06/09 08:52:30;;;;;;;22.55;15.40;;;;;;;22.15;92.48;96699.72;5038512;28;20613;-72
2021/06/09 08:54:56;;;;;;;21.48;14.93;;;;;;;21.98;87.84;96695.31;5039181;28;20244;-72
2021/06/09 08:57:22;;;;;;;22.42;15.82;;;;;;;22.00;86.17;96702.09;5038745;28;20593;-72
2021/06/09 08:59:49;;;;;;;23.98;15.80;;;;;;;22.16;89.11;96707.53;5035397;28;20213;-72
2021/06/09 09:02:16;;;;;;;22.08;15.25;;;;;;;22.42;91.43;96706.22;5039280;28;20209;-71
2021/06/09 09:04:43;;;;;;;19.08;15.18;;;;;;;22.53;92.18;96708.03;5039101;28;20233;-73
2021/06/09 09:07:10;;;;;;;22.88;15.63;;;;;;;22.45;89.91;96703.84;5037987;28;20205;-72
2021/06/09 09:09:37;;;;;;;20.05;15.82;;;;;;;22.52;89.86;96696.47;5039384;28;20208;-72
2021/06/09 09:12:05;;;;;;;21.30;15.07;;;;;;;22.65;89.70;96701.56;5039555;28;20251;-72
2021/06/09 09:14:31;;;;;;;17.40;12.55;;;;;;;22.62;81.67;96706.59;5037789;28;20286;-72
2021/06/09 09:17:06;;;;;;;17.85;13.60;;;;;;;22.79;86.99;96708.28;5037795;28;20215;-72
2021/06/09 09:19:38;;;;;;;18.20;13.30;;;;;;;22.98;84.97;96698.94;5039618;28;20208;-72
2021/06/09 09:22:04;;;;;;;19.88;13.75;;;;;;;23.07;85.85;96700.22;5038637;28;21313;-72
2021/06/09 09:24:38;;;;;;;18.90;14.77;;;;;;;23.02;87.51;96700.94;5038658;28;20666;-72
2021/06/09 09:27:05;;;;;;;23.50;15.05;;;;;;;23.04;79.93;96698.81;5037788;28;20220;-72
2021/06/09 09:29:31;;;;;;;16.75;13.43;;;;;;;23.24;81.21;96706.41;5038322;28;20703;-73
2021/06/09 09:31:59;;;;;;;18.13;13.73;;;;;;;23.34;80.85;96702.84;5038402;28;20715;-73
2021/06/09 09:34:38;;;;;;;18.83;13.43;;;;;;;23.16;80.27;96696.88;5038239;28;20232;-73
2021/06/09 09:37:11;;;;;;;17.42;12.13;;;;;;;23.48;85.73;96697.94;5038151;28;20213;-73
2021/06/09 09:39:39;;;;;;;20.33;13.75;;;;;;;23.62;84.38;96701.91;5038407;28;20208;-73
2021/06/09 09:42:31;;;;;;;17.77;13.05;;;;;;;23.95;77.86;96705.38;5038074;28;20207;-73
2021/06/09 09:45:20;;;;;;;20.70;14.50;;;;;;;24.07;76.41;96709.59;5038583;28;20290;-73
2021/06/09 09:48:06;;;;;;;20.10;14.50;;;;;;;23.98;79.24;96704.88;5038062;28;20206;-73
2021/06/09 09:50:33;;;;;;;22.27;13.90;;;;;;;23.61;85.07;96698.41;5038003;28;21032;-73
2021/06/09 09:53:17;;;;;;;18.95;13.57;;;;;;;23.68;81.20;96704.44;5038561;28;20240;-73
2021/06/09 09:55:58;;;;;;;19.38;13.95;;;;;;;23.60;76.63;96702.16;5037329;28;20247;-73
2021/06/09 09:58:26;;;;;;;17.70;13.48;;;;;;;23.55;79.82;96698.59;5037764;28;20621;-73
2021/06/09 10:00:52;;;;;;;19.38;14.00;;;;;;;23.27;81.54;96701.38;5037971;28;20209;-73
2021/06/09 10:03:20;;;;;;;18.17;13.00;;;;;;;23.07;82.87;96701.03;5037888;28;20271;-73
2021/06/09 10:05:46;;;;;;;17.90;12.85;;;;;;;23.13;82.16;96693.84;5037152;28;20978;-73
2021/06/09 10:08:14;;;;;;;17.80;12.77;;;;;;;23.24;83.87;96692.97;5038199;28;20205;-73
2021/06/09 10:10:40;;;;;;;17.25;12.90;;;;;;;23.31;82.75;96689.84;5037919;28;20266;-73
2021/06/09 10:13:08;;;;;;;17.55;12.88;;;;;;;23.47;79.71;96696.28;5037742;28;20225;-73
2021/06/09 10:15:36;;;;;;;19.67;13.95;;;;;;;23.74;78.18;96695.41;5036543;28;20644;-73
2021/06/09 10:18:18;;;;;;;16.27;12.05;;;;;;;24.07;82.87;96700.69;5037271;28;20726;-72
2021/06/09 10:20:48;;;;;;;18.15;12.98;;;;;;;24.51;78.42;96700.47;5036840;28;20228;-72
2021/06/09 10:23:38;;;;;;;18.73;14.40;;;;;;;24.20;77.14;96700.34;5036621;28;20344;-72
2021/06/09 10:26:06;;;;;;;16.45;12.80;;;;;;;23.83;77.72;96707.38;5036722;28;20257;-72
2021/06/09 10:28:56;;;;;;;18.83;13.57;;;;;;;23.90;85.82;96702.63;5037046;28;20274;-72
2021/06/09 10:31:22;;;;;;;20.70;13.77;;;;;;;23.64;84.39;96697.91;5037682;28;20224;-72
2021/06/09 10:33:49;;;;;;;21.17;14.15;;;;;;;23.96;85.26;96699.75;5037562;28;20221;-71
2021/06/09 10:36:15;;;;;;;19.10;14.43;;;;;;;24.22;87.07;96690.13;5036610;28;20232;-72
2021/06/09 10:38:45;;;;;;;16.98;12.90;;;;;;;24.55;78.62;96695.41;5037285;28;20213;-71
2021/06/09 10:41:12;;;;;;;17.45;12.25;;;;;;;24.78;80.19;96699.44;5037756;28;20220;-74
2021/06/09 10:43:40;;;;;;;21.92;13.55;;;;;;;24.85;77.46;96685.78;5036705;28;20252;-73
2021/06/09 10:46:07;;;;;;;17.00;12.05;;;;;;;25.09;73.29;96681.69;5036063;28;21001;-71
2021/06/09 10:48:35;;;;;;;15.43;12.48;;;;;;;25.10;76.39;96677.94;5037573;28;20909;-73
2021/06/09 10:51:01;;;;;;;14.13;12.02;;;;;;;24.71;73.57;96684.53;5037150;28;20201;-72
2021/06/09 10:53:28;;;;;;;14.98;11.50;;;;;;;24.48;79.92;96675.91;5036751;28;20229;-71
2021/06/09 10:55:56;;;;;;;14.73;11.98;;;;;;;24.29;74.16;96670.03;5037032;28;20727;-71
2021/06/09 10:58:24;;;;;;;14.73;12.07;;;;;;;24.50;78.37;96660.31;5037110;28;20205;-73
2021/06/09 11:00:54;;;;;;;15.18;12.15;;;;;;;23.94;77.82;96661.50;5036656;28;20200;-74
2021/06/09 11:03:22;;;;;;;21.25;12.98;;;;;;;23.96;79.40;96653.19;5037262;28;20248;-73
2021/06/09 11:05:48;;;;;;;15.30;12.10;;;;;;;24.48;78.61;96654.34;5036085;28;20209;-71
2021/06/09 11:08:16;;;;;;;16.35;12.15;;;;;;;24.93;76.26;96647.56;5036848;28;20723;-71
2021/06/09 11:10:44;;;;;;;13.93;11.30;;;;;;;24.75;71.23;96640.63;5036668;28;20217;-71
2021/06/09 11:13:26;;;;;;;16.08;11.88;;;;;;;24.26;74.26;96653.53;5036606;28;20259;-72
2021/06/09 11:16:04;;;;;;;14.02;11.15;;;;;;;24.33;74.58;96654.19;5035385;28;20507;-72
2021/06/09 11:18:34;;;;;;;16.50;11.27;;;;;;;24.85;78.20;96643.44;5036369;28;20216;-72
2021/06/09 11:21:02;;;;;;;14.93;11.70;;;;;;;25.14;77.96;96647.50;5036537;28;20324;-71